Time;durP1;ratioP1;P1;durP2;ratioP2;P2;SDS_P1;SDS_P2;PMS_P1;PMS_P2;Temp;Humidity;BMP_temperature;BMP_pressure;BME280_temperature;BME280_humidity;BME280_pressure;Samples;Min_cycle;Max_cycle;Signal;HPM_P1;HPM_P2
2023/05/05 00:02:27;;;;;;;0.60;0.20;;;23.30;55.80;;;;;;6372381;27;20047;-54
2023/05/05 00:05:29;;;;;;;0.52;0.30;;;23.30;56.00;;;;;;6371909;28;20039;-54
2023/05/05 00:08:31;;;;;;;0.30;0.22;;;23.40;56.10;;;;;;6371779;28;20046;-55
2023/05/05 00:11:32;;;;;;;0.73;0.40;;;23.20;56.10;;;;;;6372241;27;20046;-55
2023/05/05 00:14:38;;;;;;;0.47;0.20;;;23.10;56.10;;;;;;6371894;27;20068;-54
2023/05/05 00:17:41;;;;;;;0.20;0.20;;;23.30;54.50;;;;;;6371804;27;20484;-54
2023/05/05 00:20:43;;;;;;;0.55;0.30;;;23.20;56.30;;;;;;6372121;28;20138;-55
2023/05/05 00:23:45;;;;;;;0.63;0.30;;;23.00;56.30;;;;;;6371976;27;20076;-55
2023/05/05 00:26:46;;;;;;;0.45;0.22;;;23.20;56.60;;;;;;6372498;27;20043;-53
2023/05/05 00:29:48;;;;;;;;;;;23.10;56.70;;;;;;6374381;27;20525;-54
2023/05/05 00:32:50;;;;;;;0.50;0.25;;;23.20;56.90;;;;;;6377002;28;19926;-55
2023/05/05 00:35:51;;;;;;;0.68;0.35;;;22.90;56.60;;;;;;6376046;27;20119;-55
2023/05/05 00:38:53;;;;;;;0.50;0.20;;;23.00;56.90;;;;;;6375866;27;20043;-54
2023/05/05 00:41:56;;;;;;;0.30;0.30;;;23.30;57.10;;;;;;6376175;27;20046;-55
2023/05/05 00:44:58;;;;;;;0.57;0.30;;;23.20;57.10;;;;;;6375518;27;20046;-54
2023/05/05 00:48:00;;;;;;;0.38;0.35;;;23.20;57.20;;;;;;6375851;27;20066;-55
2023/05/05 00:51:07;;;;;;;0.50;0.25;;;22.90;57.10;;;;;;6376037;27;20121;-55
2023/05/05 00:54:09;;;;;;;0.55;0.30;;;23.10;57.20;;;;;;6375848;27;20043;-56
2023/05/05 00:57:11;;;;;;;0.63;0.20;;;22.80;57.20;;;;;;6375910;27;20398;-55
2023/05/05 01:00:15;;;;;;;0.70;0.30;;;23.10;57.40;;;;;;6375484;27;20039;-55
2023/05/05 01:03:16;;;;;;;0.52;0.20;;;22.90;56.60;;;;;;6375683;27;20054;-54
2023/05/05 01:06:33;;;;;;;0.93;0.45;;;23.30;57.60;;;;;;6375768;27;20042;-54
2023/05/05 01:09:46;;;;;;;0.63;0.40;;;23.20;57.40;;;;;;6375749;27;20043;-55
2023/05/05 01:12:55;;;;;;;0.20;0.20;;;23.10;57.40;;;;;;6375181;27;20078;-54
2023/05/05 01:16:06;;;;;;;0.35;0.20;;;22.90;57.30;;;;;;6358263;28;20062;-53
2023/05/05 01:19:20;;;;;;;0.50;0.20;;;23.20;57.50;;;;;;6375743;27;20047;-55
2023/05/05 01:22:27;;;;;;;0.30;0.30;;;22.90;57.50;;;;;;6328778;22;20057;-61
2023/05/05 01:25:53;;;;;;;0.68;0.20;;;22.80;57.50;;;;;;6299447;28;20045;-61
2023/05/05 01:29:14;;;;;;;0.28;0.20;;;23.30;57.80;;;;;;6299454;28;20499;-61
2023/05/05 01:32:21;;;;;;;0.35;0.20;;;22.90;57.60;;;;;;6298205;28;20036;-61
2023/05/05 01:35:28;;;;;;;0.20;0.20;;;22.90;57.70;;;;;;6299514;28;20052;-61
2023/05/05 01:38:35;;;;;;;0.47;0.25;;;22.80;57.60;;;;;;6299951;28;20101;-60
2023/05/05 01:41:40;;;;;;;0.22;0.20;;;22.80;57.70;;;;;;6297152;28;20041;-60
2023/05/05 01:44:45;;;;;;;0.45;0.30;;;22.90;57.80;;;;;;6299522;28;20487;-60
2023/05/05 01:47:48;;;;;;;0.28;0.20;;;22.80;57.80;;;;;;6298992;28;20040;-61
2023/05/05 01:50:53;;;;;;;0.30;0.30;;;22.90;58.00;;;;;;6298929;28;20048;-61
2023/05/05 01:53:58;;;;;;;0.65;0.30;;;22.90;58.00;;;;;;6299395;28;20395;-61
2023/05/05 01:57:04;;;;;;;0.35;0.30;;;22.90;58.00;;;;;;6299016;28;20414;-61
2023/05/05 02:00:08;;;;;;;0.40;0.10;;;22.70;58.00;;;;;;6299167;28;20403;-61
2023/05/05 02:03:21;;;;;;;0.63;0.22;;;22.80;58.10;;;;;;6297659;28;20120;-61
2023/05/05 02:06:25;;;;;;;0.28;0.25;;;22.80;58.20;;;;;;6298799;28;20607;-61
2023/05/05 02:09:28;;;;;;;0.43;0.35;;;22.90;58.30;;;;;;6297524;28;20044;-61
2023/05/05 02:12:31;;;;;;;0.10;0.10;;;22.80;58.30;;;;;;6297509;28;20086;-61
2023/05/05 02:20:23;;;;;;;0.98;0.20;;;23.30;56.40;;;;;;6298866;28;20037;-58
2023/05/05 02:23:24;;;;;;;0.38;0.35;;;22.70;58.40;;;;;;6298331;28;20045;-58
2023/05/05 02:26:27;;;;;;;;;;;22.80;58.60;;;;;;6298674;28;20045;-58
2023/05/05 02:29:33;;;;;;;0.40;0.20;;;22.80;58.70;;;;;;6298426;28;19920;-58
2023/05/05 02:32:38;;;;;;;0.40;0.20;;;22.70;58.40;;;;;;6297136;28;20090;-58
2023/05/05 02:35:43;;;;;;;0.80;0.30;;;22.70;58.50;;;;;;6296882;28;20056;-58
2023/05/05 02:38:54;;;;;;;0.13;0.13;;;22.90;58.60;;;;;;6298290;28;20044;-58
2023/05/05 02:42:02;;;;;;;0.22;0.22;;;22.90;58.60;;;;;;6297953;28;20128;-58
2023/05/05 02:45:10;;;;;;;0.38;0.30;;;22.60;58.50;;;;;;6296691;28;20415;-58
2023/05/05 02:48:14;;;;;;;0.20;0.20;;;22.90;58.70;;;;;;6296775;28;20051;-58
2023/05/05 02:51:17;;;;;;;0.50;0.30;;;22.90;58.90;;;;;;6297795;28;20044;-58
2023/05/05 02:54:19;;;;;;;0.45;0.20;;;22.70;58.70;;;;;;6297735;28;20045;-59
2023/05/05 02:57:26;;;;;;;0.20;0.20;;;22.90;59.00;;;;;;6298013;28;20135;-58
2023/05/05 03:00:37;;;;;;;0.20;0.10;;;22.80;58.80;;;;;;6297812;28;20059;-58
2023/05/05 03:03:46;;;;;;;0.45;0.20;;;22.70;58.90;;;;;;6279015;28;20049;-58
2023/05/05 03:06:55;;;;;;;0.35;0.35;;;22.90;59.00;;;;;;6297385;28;20044;-58
2023/05/05 03:10:04;;;;;;;0.30;0.30;;;22.80;59.00;;;;;;6297668;28;20154;-58
2023/05/05 03:13:10;;;;;;;0.43;0.20;;;22.80;59.10;;;;;;6297557;28;20082;-58
2023/05/05 03:16:18;;;;;;;0.77;0.20;;;22.80;59.20;;;;;;6297309;28;20079;-58
2023/05/05 03:19:21;;;;;;;0.20;0.20;;;22.70;59.20;;;;;;6297635;28;20074;-58
2023/05/05 03:22:31;;;;;;;0.20;0.20;;;22.80;59.30;;;;;;6296072;28;20506;-58
2023/05/05 03:25:41;;;;;;;0.22;0.22;;;23.00;59.10;;;;;;6297072;28;20059;-58
2023/05/05 03:28:44;;;;;;;0.43;0.20;;;22.70;59.40;;;;;;6296029;28;20120;-58
2023/05/05 03:31:55;;;;;;;0.17;0.10;;;23.00;59.80;;;;;;6295929;28;20047;-58
2023/05/05 03:34:56;;;;;;;0.40;0.20;;;22.70;59.60;;;;;;6295885;28;20049;-58
2023/05/05 03:38:04;;;;;;;0.30;0.30;;;22.80;59.70;;;;;;6296862;28;20068;-58
2023/05/05 03:41:10;;;;;;;0.10;0.10;;;22.70;59.60;;;;;;6297121;28;20049;-58
2023/05/05 03:44:11;;;;;;;0.28;0.20;;;22.70;59.70;;;;;;6297156;28;20044;-57
2023/05/05 03:47:13;;;;;;;;;;;22.80;59.70;;;;;;6297153;28;20051;-58
2023/05/05 03:50:15;;;;;;;0.45;0.30;;;23.00;60.00;;;;;;6296920;28;20019;-58
2023/05/05 03:53:18;;;;;;;0.10;0.10;;;22.80;59.60;;;;;;6297465;28;20047;-57
2023/05/05 03:56:20;;;;;;;0.50;0.20;;;22.70;59.50;;;;;;6296563;28;20591;-58
2023/05/05 03:59:21;;;;;;;0.20;0.10;;;22.70;59.60;;;;;;6296780;28;20533;-58
2023/05/05 04:02:23;;;;;;;0.10;0.10;;;23.10;59.90;;;;;;6296623;28;20044;-57
2023/05/05 04:05:25;;;;;;;0.55;0.20;;;22.70;59.60;;;;;;6299879;28;20574;-58
2023/05/05 04:08:28;;;;;;;0.25;0.20;;;22.70;59.70;;;;;;6301207;28;20041;-58
2023/05/05 04:11:30;;;;;;;0.30;0.17;;;22.70;59.60;;;;;;6300969;28;20412;-58
2023/05/05 04:14:32;;;;;;;0.35;0.25;;;22.60;59.30;;;;;;6300788;28;20063;-58
2023/05/05 04:17:33;;;;;;;0.38;0.20;;;22.50;59.40;;;;;;6300787;28;20048;-58
2023/05/05 04:20:35;;;;;;;0.43;0.20;;;22.80;59.50;;;;;;6300707;28;20518;-58
2023/05/05 04:23:38;;;;;;;0.57;0.30;;;22.60;59.40;;;;;;6300819;28;20036;-58
2023/05/05 04:26:40;;;;;;;0.38;0.28;;;22.60;59.20;;;;;;6300627;28;20048;-58
2023/05/05 04:29:41;;;;;;;0.10;0.10;;;22.60;59.20;;;;;;6300928;28;20045;-58
2023/05/05 04:32:44;;;;;;;0.43;0.15;;;22.60;59.20;;;;;;6300636;28;20163;-58
2023/05/05 04:35:46;;;;;;;0.32;0.32;;;22.70;59.20;;;;;;6300450;28;20054;-58
2023/05/05 04:38:50;;;;;;;0.25;0.13;;;22.60;59.20;;;;;;6300470;28;20047;-58
2023/05/05 04:41:52;;;;;;;0.15;0.15;;;22.70;59.10;;;;;;6300451;28;20097;-58
2023/05/05 04:44:53;;;;;;;0.52;0.20;;;22.60;58.90;;;;;;6300196;28;20594;-57
2023/05/05 04:47:55;;;;;;;0.25;0.17;;;22.60;59.00;;;;;;6300077;28;20044;-58
2023/05/05 04:50:57;;;;;;;0.20;0.20;;;22.60;59.00;;;;;;6300412;28;20373;-58
2023/05/05 04:53:59;;;;;;;0.20;0.20;;;22.70;59.00;;;;;;6300133;28;20048;-58
2023/05/05 04:57:01;;;;;;;0.20;0.20;;;22.60;58.70;;;;;;6299967;28;20507;-58
2023/05/05 05:00:05;;;;;;;0.70;0.25;;;22.70;58.90;;;;;;6298862;28;20488;-58
2023/05/05 05:03:07;;;;;;;0.30;0.30;;;22.50;58.50;;;;;;6299992;28;20046;-58
2023/05/05 05:06:08;;;;;;;0.28;0.17;;;22.50;58.80;;;;;;6299801;28;20388;-58
2023/05/05 05:09:11;;;;;;;0.30;0.20;;;22.80;58.40;;;;;;6300289;28;20502;-59
2023/05/05 05:12:12;;;;;;;0.10;0.10;;;22.70;58.70;;;;;;6299786;28;20037;-59
2023/05/05 05:15:14;;;;;;;0.30;0.10;;;22.50;58.60;;;;;;6298393;28;20554;-59
2023/05/05 05:18:16;;;;;;;0.28;0.20;;;22.50;58.70;;;;;;6299899;28;20045;-59
2023/05/05 05:21:21;;;;;;;0.35;0.30;;;23.00;59.00;;;;;;6299580;28;20127;-59
2023/05/05 05:24:24;;;;;;;0.45;0.25;;;22.60;58.80;;;;;;6299371;28;20083;-59
2023/05/05 05:27:27;;;;;;;0.70;0.30;;;22.50;58.40;;;;;;6299745;28;20055;-59
2023/05/05 05:30:30;;;;;;;0.50;0.40;;;22.60;58.80;;;;;;6299551;28;20041;-59
2023/05/05 05:33:33;;;;;;;0.55;0.25;;;22.60;58.80;;;;;;6299211;28;20046;-59
2023/05/05 05:36:34;;;;;;;0.57;0.28;;;22.60;58.80;;;;;;6299876;28;20072;-59
2023/05/05 05:39:37;;;;;;;1.08;0.35;;;22.50;58.60;;;;;;6299184;28;20059;-59
2023/05/05 05:42:40;;;;;;;0.30;0.30;;;22.50;58.70;;;;;;6298897;28;20123;-59
2023/05/05 05:45:42;;;;;;;0.22;0.20;;;22.40;58.70;;;;;;6299263;28;20051;-59
2023/05/05 05:48:44;;;;;;;0.55;0.30;;;22.60;58.80;;;;;;6280910;28;20119;-59
2023/05/05 05:51:45;;;;;;;;;;;22.40;58.70;;;;;;6299331;28;20131;-59
2023/05/05 05:54:48;;;;;;;0.30;0.20;;;23.20;59.40;;;;;;6297659;28;19927;-59
2023/05/05 05:57:50;;;;;;;0.60;0.22;;;22.50;58.70;;;;;;6298854;28;20145;-59
2023/05/05 06:00:52;;;;;;;0.77;0.30;;;22.40;58.90;;;;;;6298677;28;20042;-59
2023/05/05 06:03:56;;;;;;;0.75;0.30;;;22.70;59.10;;;;;;6298764;28;20083;-59
2023/05/05 06:06:57;;;;;;;0.22;0.20;;;22.60;59.10;;;;;;6298493;28;20076;-59
2023/05/05 06:09:59;;;;;;;0.85;0.30;;;22.50;59.10;;;;;;6299161;28;20075;-59
2023/05/05 06:13:17;;;;;;;0.55;0.22;;;22.50;59.20;;;;;;6298761;28;20068;-58
2023/05/05 06:16:22;;;;;;;1.10;0.28;;;22.50;59.10;;;;;;6298566;28;20147;-59
2023/05/05 06:19:24;;;;;;;1.17;0.30;;;22.60;59.30;;;;;;6298419;28;20140;-58
2023/05/05 06:22:25;;;;;;;0.50;0.35;;;22.80;59.40;;;;;;6298490;28;20044;-59
2023/05/05 06:25:28;;;;;;;0.38;0.20;;;22.60;59.50;;;;;;6297813;28;20087;-58
2023/05/05 06:28:29;;;;;;;0.28;0.20;;;22.60;59.20;;;;;;6297682;28;20460;-58
2023/05/05 06:31:31;;;;;;;0.73;0.20;;;22.60;59.60;;;;;;6297977;28;20481;-59
2023/05/05 06:34:32;;;;;;;0.52;0.40;;;22.50;59.50;;;;;;6297977;28;20060;-58
2023/05/05 06:37:34;;;;;;;0.52;0.30;;;22.70;59.60;;;;;;6297791;28;20052;-59
2023/05/05 06:40:39;;;;;;;0.50;0.40;;;22.60;59.60;;;;;;6297523;28;20044;-59
2023/05/05 06:43:41;;;;;;;0.50;0.40;;;22.60;59.60;;;;;;6297705;28;20500;-59
2023/05/05 06:46:46;;;;;;;0.70;0.52;;;22.50;59.30;;;;;;6297667;28;20048;-59
2023/05/05 06:49:48;;;;;;;0.35;0.30;;;22.50;59.50;;;;;;6297214;28;20041;-58
2023/05/05 06:52:49;;;;;;;;;;;22.70;59.60;;;;;;6298076;28;20051;-59
2023/05/05 06:55:51;;;;;;;0.68;0.25;;;22.90;59.90;;;;;;6297549;28;20396;-59
2023/05/05 06:58:54;;;;;;;0.73;0.40;;;22.60;59.20;;;;;;6297153;28;20414;-59
2023/05/05 07:01:55;;;;;;;;;;;22.60;59.60;;;;;;6298023;28;20048;-58
2023/05/05 07:04:58;;;;;;;1.15;0.32;;;22.80;59.80;;;;;;6296883;28;19943;-58
2023/05/05 07:07:59;;;;;;;0.40;0.20;;;22.60;59.60;;;;;;6296688;28;20048;-58
2023/05/05 07:11:01;;;;;;;1.17;0.30;;;22.90;59.60;;;;;;6297027;28;20109;-59
2023/05/05 07:14:03;;;;;;;0.35;0.20;;;22.70;59.70;;;;;;6296604;28;20044;-59
2023/05/05 07:17:04;;;;;;;;;;;22.60;59.60;;;;;;6296902;28;20072;-58
2023/05/05 07:20:06;;;;;;;0.80;0.30;;;23.30;60.50;;;;;;6296880;28;19954;-59
2023/05/05 07:23:10;;;;;;;0.63;0.20;;;22.60;59.60;;;;;;6297223;28;20040;-59
2023/05/05 07:26:12;;;;;;;0.45;0.20;;;22.90;60.00;;;;;;6296414;28;20041;-59
2023/05/05 07:29:13;;;;;;;0.60;0.40;;;22.60;59.90;;;;;;6297014;28;20094;-59
2023/05/05 07:32:15;;;;;;;0.57;0.20;;;22.60;60.10;;;;;;6297186;28;20094;-59
2023/05/05 07:35:16;;;;;;;0.95;0.40;;;22.60;60.10;;;;;;6297312;28;20484;-59
2023/05/05 07:38:18;;;;;;;0.90;0.40;;;22.60;60.10;;;;;;6295600;28;20037;-59
2023/05/05 07:41:20;;;;;;;1.95;0.40;;;22.60;60.00;;;;;;6296364;28;20076;-59
2023/05/05 07:44:22;;;;;;;1.63;0.68;;;22.50;60.30;;;;;;6296531;28;20044;-59
2023/05/05 07:47:26;;;;;;;;;;;22.60;60.30;;;;;;6296856;28;20052;-58
2023/05/05 07:50:27;;;;;;;0.98;0.50;;;22.80;60.90;;;;;;6296205;28;19924;-58
2023/05/05 07:53:29;;;;;;;;;;;22.50;60.50;;;;;;6296869;28;20044;-59
2023/05/05 07:56:31;;;;;;;1.02;0.60;;;23.10;61.20;;;;;;6296049;28;19921;-59
2023/05/05 07:59:34;;;;;;;1.70;0.52;;;22.50;60.60;;;;;;6295942;28;20041;-59
2023/05/05 08:02:35;;;;;;;1.40;0.60;;;22.60;60.90;;;;;;6296395;28;20165;-60
2023/05/05 08:05:37;;;;;;;0.63;0.40;;;22.50;60.90;;;;;;6296520;28;20052;-59
2023/05/05 08:08:39;;;;;;;1.38;0.60;;;22.50;61.10;;;;;;6295736;28;20044;-60
2023/05/05 08:11:41;;;;;;;1.95;0.40;;;22.80;61.20;;;;;;6296015;28;20162;-59
2023/05/05 08:14:42;;;;;;;1.58;0.50;;;22.60;61.10;;;;;;6296014;28;20070;-59
2023/05/05 08:17:45;;;;;;;;;;;22.50;60.90;;;;;;6296200;28;20045;-59
2023/05/05 08:20:46;;;;;;;1.00;0.40;;;22.90;61.20;;;;;;6296535;28;19920;-59
2023/05/05 08:23:48;;;;;;;;;;;22.80;61.10;;;;;;6296577;28;20573;-59
2023/05/05 08:26:50;;;;;;;0.65;0.30;;;23.20;61.60;;;;;;6295677;28;19920;-59
2023/05/05 08:29:53;;;;;;;0.93;0.40;;;22.50;60.80;;;;;;6277424;28;20041;-59
2023/05/05 08:32:55;;;;;;;0.75;0.40;;;22.80;58.70;;;;;;6295773;28;20392;-59
2023/05/05 08:35:56;;;;;;;1.20;0.50;;;22.60;60.90;;;;;;6295435;28;20050;-59
2023/05/05 08:38:59;;;;;;;1.02;0.47;;;22.60;61.10;;;;;;6295643;28;20071;-60
2023/05/05 08:42:02;;;;;;;0.93;0.50;;;22.50;60.70;;;;;;6294550;28;20118;-59
2023/05/05 08:45:04;;;;;;;0.60;0.30;;;22.50;61.00;;;;;;6295874;28;20079;-60
2023/05/05 08:48:06;;;;;;;1.13;0.40;;;22.50;61.00;;;;;;6295552;28;20094;-60
2023/05/05 08:51:09;;;;;;;0.65;0.30;;;22.50;60.90;;;;;;6296830;28;20162;-59
2023/05/05 08:54:16;;;;;;;1.15;0.55;;;22.50;61.00;;;;;;6299535;28;20458;-59
2023/05/05 08:57:24;;;;;;;0.77;0.50;;;22.50;61.00;;;;;;6299180;28;20383;-59
2023/05/05 09:00:27;;;;;;;0.88;0.43;;;22.70;61.20;;;;;;6299697;28;20056;-59
2023/05/05 09:03:31;;;;;;;0.57;0.38;;;22.70;61.20;;;;;;6298939;28;20461;-60
2023/05/05 09:06:33;;;;;;;1.02;0.38;;;22.60;61.20;;;;;;6299624;28;20055;-59
2023/05/05 09:09:37;;;;;;;2.28;1.00;;;22.70;61.20;;;;;;6299287;28;20067;-59
2023/05/05 09:12:39;;;;;;;1.35;0.85;;;22.80;61.30;;;;;;6299216;28;20495;-60
2023/05/05 09:15:41;;;;;;;0.90;0.57;;;22.70;61.30;;;;;;6298906;28;20037;-60
2023/05/05 09:18:44;;;;;;;1.25;0.63;;;22.80;61.10;;;;;;6299296;28;20044;-60
2023/05/05 09:21:47;;;;;;;0.60;0.50;;;22.60;61.10;;;;;;6299038;28;20101;-60
2023/05/05 09:24:54;;;;;;;0.82;0.60;;;22.60;60.60;;;;;;6298289;28;20071;-60
2023/05/05 09:27:56;;;;;;;0.30;0.30;;;22.80;61.00;;;;;;6299307;28;20036;-59
2023/05/05 09:31:12;;;;;;;0.60;0.30;;;22.70;60.60;;;;;;6298880;28;20044;-59
2023/05/05 09:34:15;;;;;;;0.88;0.47;;;23.10;60.80;;;;;;6298711;28;20060;-60
2023/05/05 09:37:26;;;;;;;1.13;0.60;;;22.70;60.50;;;;;;6297670;28;20429;-59
2023/05/05 09:40:44;;;;;;;0.73;0.50;;;22.80;60.50;;;;;;6298652;28;20468;-60
2023/05/05 09:43:51;;;;;;;0.50;0.40;;;22.80;60.50;;;;;;6297357;28;20049;-59
2023/05/05 09:46:54;;;;;;;0.60;0.32;;;22.80;60.20;;;;;;6298867;28;20087;-59
2023/05/05 09:49:57;;;;;;;0.80;0.50;;;22.80;59.90;;;;;;6298375;28;20074;-59
2023/05/05 09:53:00;;;;;;;1.00;0.47;;;23.10;60.10;;;;;;6296987;28;20460;-59
2023/05/05 09:56:02;;;;;;;0.40;0.25;;;22.80;59.70;;;;;;6297299;28;20041;-60
2023/05/05 09:59:11;;;;;;;0.30;0.13;;;22.90;59.90;;;;;;6298403;28;20044;-60
2023/05/05 10:02:13;;;;;;;0.85;0.35;;;22.80;59.70;;;;;;6296451;28;20036;-59
2023/05/05 10:05:16;;;;;;;0.68;0.40;;;22.80;59.80;;;;;;6299159;28;20154;-60
2023/05/05 10:08:20;;;;;;;0.95;0.20;;;22.90;59.70;;;;;;6297359;28;20122;-59
2023/05/05 10:11:23;;;;;;;0.63;0.40;;;22.90;59.70;;;;;;6297108;28;20068;-60
2023/05/05 10:14:26;;;;;;;1.27;0.35;;;23.00;59.60;;;;;;6298677;28;20475;-59
2023/05/05 10:17:30;;;;;;;0.43;0.22;;;23.00;59.50;;;;;;6297006;28;20476;-59
2023/05/05 10:20:33;;;;;;;0.57;0.30;;;22.90;59.40;;;;;;6296962;28;20037;-59
2023/05/05 10:23:38;;;;;;;0.60;0.20;;;23.20;59.50;;;;;;6298544;28;20080;-60
2023/05/05 10:26:43;;;;;;;0.82;0.30;;;23.00;59.20;;;;;;6296591;28;20067;-60
2023/05/05 10:29:51;;;;;;;0.28;0.20;;;23.00;59.10;;;;;;6296768;28;20495;-60
2023/05/05 10:32:59;;;;;;;0.65;0.30;;;23.30;59.30;;;;;;6296473;28;20052;-60
2023/05/05 10:36:21;;;;;;;0.40;0.30;;;23.00;59.10;;;;;;6296748;28;20070;-60
2023/05/05 10:39:24;;;;;;;1.05;0.40;;;23.00;59.10;;;;;;6298303;28;20116;-60
2023/05/05 10:42:26;;;;;;;0.98;0.40;;;23.40;59.20;;;;;;6297687;28;20041;-60
2023/05/05 10:45:29;;;;;;;0.40;0.30;;;23.10;58.90;;;;;;6297943;28;20040;-60
2023/05/05 10:48:37;;;;;;;0.88;0.45;;;23.10;58.90;;;;;;6297580;28;20068;-60
2023/05/05 10:51:46;;;;;;;0.47;0.30;;;23.10;58.70;;;;;;6296269;28;20040;-60
2023/05/05 10:55:01;;;;;;;0.52;0.40;;;23.10;58.60;;;;;;6295992;28;20408;-60
2023/05/05 10:58:03;;;;;;;0.45;0.20;;;23.20;59.20;;;;;;6297398;28;20040;-60
2023/05/05 11:01:06;;;;;;;0.60;0.30;;;23.30;58.80;;;;;;6297185;28;20136;-59
2023/05/05 11:04:19;;;;;;;0.70;0.50;;;23.20;58.40;;;;;;6295648;28;20040;-60
2023/05/05 11:07:22;;;;;;;0.50;0.13;;;23.20;58.60;;;;;;6297663;28;20123;-59
2023/05/05 11:10:24;;;;;;;0.45;0.20;;;23.30;58.20;;;;;;6297943;28;20125;-60
2023/05/05 11:13:26;;;;;;;0.60;0.22;;;23.30;58.40;;;;;;6295469;28;20047;-60
2023/05/05 11:16:43;;;;;;;0.60;0.30;;;23.30;58.10;;;;;;6296903;28;20045;-60
2023/05/05 11:19:46;;;;;;;0.40;0.30;;;23.10;58.10;;;;;;6295337;28;20072;-60
2023/05/05 11:23:13;;;;;;;0.70;0.28;;;23.30;58.10;;;;;;6297247;28;20037;-60
2023/05/05 11:26:47;;;;;;;0.73;0.30;;;23.30;58.20;;;;;;6295363;28;20127;-60
2023/05/05 11:30:05;;;;;;;0.73;0.20;;;23.30;58.60;;;;;;6295767;28;20041;-60
2023/05/05 11:33:23;;;;;;;0.98;0.30;;;23.60;58.90;;;;;;6296238;28;20036;-60
2023/05/05 11:36:39;;;;;;;0.50;0.20;;;23.40;59.20;;;;;;6296772;28;20519;-60
2023/05/05 11:40:00;;;;;;;0.85;0.38;;;23.40;59.60;;;;;;6297043;28;20044;-60
2023/05/05 11:43:06;;;;;;;0.57;0.30;;;23.40;59.70;;;;;;6296957;28;20032;-59
2023/05/05 11:46:09;;;;;;;0.65;0.30;;;23.40;59.70;;;;;;6296505;28;20455;-60
2023/05/05 11:49:26;;;;;;;0.52;0.38;;;23.40;59.60;;;;;;6296585;28;20392;-60
2023/05/05 11:52:27;;;;;;;0.38;0.20;;;23.70;59.70;;;;;;6296020;28;20047;-59
2023/05/05 11:55:29;;;;;;;1.27;0.20;;;23.40;59.50;;;;;;6296002;28;20049;-59
2023/05/05 11:58:30;;;;;;;0.30;0.30;;;23.40;59.50;;;;;;6296050;28;20499;-59
2023/05/05 12:01:32;;;;;;;0.50;0.30;;;23.40;59.20;;;;;;6295874;28;20047;-59
2023/05/05 12:04:39;;;;;;;0.43;0.20;;;23.70;59.70;;;;;;6295687;28;20041;-59
2023/05/05 12:07:40;;;;;;;0.50;0.28;;;23.50;59.40;;;;;;6296058;28;20041;-59
2023/05/05 12:10:42;;;;;;;0.20;0.20;;;23.40;59.60;;;;;;6295947;28;20087;-59
2023/05/05 12:13:46;;;;;;;0.30;0.20;;;23.40;59.30;;;;;;6296435;28;20041;-59
2023/05/05 12:16:57;;;;;;;1.02;0.28;;;23.50;57.90;;;;;;6296281;28;20041;-59
2023/05/05 12:19:59;;;;;;;0.30;0.27;;;23.40;59.10;;;;;;6295784;28;20036;-59
2023/05/05 12:23:02;;;;;;;1.33;0.40;;;23.40;59.10;;;;;;6295885;28;20042;-59
2023/05/05 12:26:23;;;;;;;0.50;0.20;;;23.40;58.80;;;;;;6297492;28;20068;-59
2023/05/05 12:29:27;;;;;;;1.00;0.32;;;23.60;58.80;;;;;;6298861;28;20048;-59
2023/05/05 12:32:29;;;;;;;0.52;0.20;;;23.60;58.80;;;;;;6299278;28;20442;-59
2023/05/05 12:35:32;;;;;;;0.28;0.20;;;23.60;58.90;;;;;;6300453;28;20147;-59
2023/05/05 12:38:34;;;;;;;0.60;0.40;;;23.40;58.50;;;;;;6299980;28;20553;-59
2023/05/05 12:41:35;;;;;;;0.32;0.20;;;23.50;58.70;;;;;;6300167;28;20121;-59
2023/05/05 12:44:38;;;;;;;1.77;0.30;;;23.50;58.60;;;;;;6299806;28;20052;-60
2023/05/05 12:47:42;;;;;;;0.93;0.43;;;23.50;58.50;;;;;;6299463;28;20043;-59
2023/05/05 12:50:44;;;;;;;1.23;0.50;;;23.60;58.50;;;;;;6300025;28;20049;-59
2023/05/05 12:53:47;;;;;;;2.50;0.40;;;23.50;58.20;;;;;;6299785;28;20044;-59
2023/05/05 12:56:50;;;;;;;0.98;0.50;;;23.40;57.90;;;;;;6299414;28;20044;-59
2023/05/05 12:59:52;;;;;;;0.63;0.32;;;23.70;58.00;;;;;;6300016;28;20036;-59
2023/05/05 13:02:54;;;;;;;1.20;0.32;;;23.70;57.90;;;;;;6300135;28;20063;-59
2023/05/05 13:05:57;;;;;;;1.48;0.60;;;23.40;57.70;;;;;;6299901;28;20383;-59
2023/05/05 13:08:58;;;;;;;0.75;0.30;;;23.70;57.50;;;;;;6299719;28;20037;-60
2023/05/05 13:12:01;;;;;;;0.63;0.40;;;23.50;57.70;;;;;;6298943;28;20040;-59
2023/05/05 13:15:03;;;;;;;0.90;0.40;;;23.70;57.40;;;;;;6299175;28;20044;-59
2023/05/05 13:18:07;;;;;;;1.92;0.40;;;23.60;57.50;;;;;;6299451;28;20094;-59
2023/05/05 13:21:09;;;;;;;0.85;0.30;;;23.60;57.20;;;;;;6299242;28;20127;-60
2023/05/05 13:24:11;;;;;;;1.35;0.60;;;23.70;57.30;;;;;;6299509;28;20404;-59
2023/05/05 13:27:37;;;;;;;1.45;0.50;;;23.70;57.30;;;;;;6299341;28;20036;-60
2023/05/05 13:30:40;;;;;;;1.33;0.47;;;23.70;57.20;;;;;;6299417;28;20048;-60
2023/05/05 13:33:42;;;;;;;1.65;0.55;;;23.70;57.10;;;;;;6298900;28;20086;-59
2023/05/05 13:36:44;;;;;;;2.25;0.60;;;23.60;57.10;;;;;;6297284;28;20044;-60
2023/05/05 13:39:45;;;;;;;0.85;0.43;;;23.70;56.80;;;;;;6299061;28;20529;-60
2023/05/05 13:42:47;;;;;;;1.45;0.73;;;23.80;57.10;;;;;;6298781;28;20052;-60
2023/05/05 13:45:48;;;;;;;0.80;0.35;;;23.70;56.90;;;;;;6298314;28;20041;-60
2023/05/05 13:48:50;;;;;;;;;;;23.80;56.90;;;;;;6299139;28;20041;-60
2023/05/05 13:51:58;;;;;;;1.77;0.57;;;23.70;57.00;;;;;;6298398;28;20398;-59
2023/05/05 13:55:00;;;;;;;2.35;0.73;;;23.80;56.80;;;;;;6298381;28;20048;-60
2023/05/05 13:58:03;;;;;;;1.55;0.52;;;23.70;56.70;;;;;;6299030;28;20483;-60
2023/05/05 14:01:04;;;;;;;0.95;0.50;;;23.80;56.80;;;;;;6298419;28;20044;-59
2023/05/05 14:04:06;;;;;;;1.48;0.60;;;24.00;56.90;;;;;;6298174;28;20037;-59
2023/05/05 14:07:08;;;;;;;0.93;0.45;;;23.80;56.80;;;;;;6298476;28;20049;-60
2023/05/05 14:10:10;;;;;;;1.02;0.40;;;23.90;56.70;;;;;;6298555;28;20507;-60
2023/05/05 14:13:13;;;;;;;1.35;0.30;;;23.80;56.90;;;;;;6298834;28;20040;-59
2023/05/05 14:16:15;;;;;;;0.90;0.30;;;23.80;57.10;;;;;;6298354;28;20521;-59
2023/05/05 14:19:16;;;;;;;0.82;0.28;;;23.90;57.00;;;;;;6298252;28;20041;-58
2023/05/05 14:22:18;;;;;;;0.88;0.38;;;23.80;56.70;;;;;;6298001;28;20044;-60
2023/05/05 14:25:20;;;;;;;0.32;0.20;;;23.90;56.90;;;;;;6298175;28;20090;-59
2023/05/05 14:28:22;;;;;;;0.98;0.30;;;23.80;56.80;;;;;;6298589;28;20091;-59
2023/05/05 14:31:23;;;;;;;1.00;0.30;;;23.80;56.80;;;;;;6297869;28;20166;-59
2023/05/05 14:34:25;;;;;;;0.40;0.40;;;23.90;56.70;;;;;;6298256;28;20492;-59
2023/05/05 14:37:27;;;;;;;0.68;0.32;;;23.80;56.90;;;;;;6296721;28;20043;-59
2023/05/05 14:40:30;;;;;;;1.02;0.30;;;23.90;56.90;;;;;;6297564;28;20051;-59
2023/05/05 14:43:31;;;;;;;0.45;0.20;;;23.90;57.20;;;;;;6298121;28;20037;-59
2023/05/05 14:46:33;;;;;;;0.63;0.30;;;24.20;57.40;;;;;;6297569;28;20048;-60
2023/05/05 14:49:34;;;;;;;0.77;0.40;;;24.20;57.50;;;;;;6297214;28;20487;-59
2023/05/05 14:52:38;;;;;;;0.50;0.30;;;23.70;57.20;;;;;;6297653;28;20087;-60
2023/05/05 14:55:40;;;;;;;0.40;0.40;;;23.90;57.40;;;;;;6297427;28;20032;-59
2023/05/05 14:58:42;;;;;;;1.50;0.40;;;24.50;57.80;;;;;;6297348;28;20055;-59
2023/05/05 15:01:43;;;;;;;0.43;0.20;;;24.20;57.60;;;;;;6297777;28;20072;-58
2023/05/05 15:04:44;;;;;;;0.70;0.32;;;24.00;57.00;;;;;;6297127;28;20113;-59
2023/05/05 15:07:51;;;;;;;0.20;0.20;;;23.90;57.30;;;;;;6297939;28;20454;-59
2023/05/05 15:10:53;;;;;;;0.55;0.30;;;23.80;56.80;;;;;;6297566;28;20068;-58
2023/05/05 15:13:54;;;;;;;0.47;0.30;;;23.80;57.10;;;;;;6297097;28;20134;-59
2023/05/05 15:16:55;;;;;;;0.60;0.28;;;23.90;56.90;;;;;;6297049;28;20056;-59
2023/05/05 15:19:59;;;;;;;0.45;0.30;;;23.90;56.90;;;;;;6297145;28;20041;-58
2023/05/05 15:23:03;;;;;;;0.95;0.30;;;23.70;56.80;;;;;;6297071;28;20037;-59
2023/05/05 15:26:05;;;;;;;1.95;0.60;;;23.90;56.60;;;;;;6296790;28;20052;-59
2023/05/05 15:29:09;;;;;;;1.02;0.40;;;23.90;56.80;;;;;;6297163;28;20041;-58
2023/05/05 15:32:10;;;;;;;1.27;0.43;;;23.80;56.40;;;;;;6296776;28;20040;-58
2023/05/05 15:35:12;;;;;;;0.50;0.30;;;23.80;55.90;;;;;;6297188;28;20484;-58
2023/05/05 15:38:17;;;;;;;1.17;0.40;;;23.60;55.80;;;;;;6296983;28;20499;-59
2023/05/05 15:41:19;;;;;;;1.00;0.30;;;24.00;55.50;;;;;;6297181;28;20435;-58
2023/05/05 15:44:20;;;;;;;0.90;0.30;;;23.80;55.40;;;;;;6296473;28;20071;-57
2023/05/05 15:47:22;;;;;;;0.47;0.30;;;23.80;55.00;;;;;;6296262;28;20044;-58
2023/05/05 15:50:23;;;;;;;0.88;0.30;;;23.80;55.00;;;;;;6296633;28;20072;-59
2023/05/05 15:53:27;;;;;;;0.82;0.40;;;23.80;54.80;;;;;;6296429;28;20044;-57
2023/05/05 15:56:32;;;;;;;0.73;0.28;;;23.80;54.70;;;;;;6296195;28;20048;-59
2023/05/05 15:59:34;;;;;;;0.63;0.30;;;23.80;54.80;;;;;;6297419;28;20064;-59
2023/05/05 16:02:36;;;;;;;0.50;0.40;;;23.80;54.70;;;;;;6300989;28;20124;-59
2023/05/05 16:05:38;;;;;;;1.02;0.32;;;23.80;54.40;;;;;;6301360;28;20044;-58
2023/05/05 16:08:42;;;;;;;0.70;0.40;;;24.00;54.40;;;;;;6301237;28;20442;-59